sensor_id;sensor_type;location;lat;lon;timestamp;P1;durP1;ratioP1;P2;durP2;ratioP2
59294;SDS011;45067;44.654;20.200;2023-07-24T00:01:59;22.40;;;18.42;;
59294;SDS011;45067;44.654;20.200;2023-07-24T00:04:25;21.15;;;18.02;;
59294;SDS011;45067;44.654;20.200;2023-07-24T00:06:51;21.08;;;18.80;;
59294;SDS011;45067;44.654;20.200;2023-07-24T00:09:17;21.70;;;18.52;;
59294;SDS011;45067;44.654;20.200;2023-07-24T00:11:43;31.80;;;19.17;;
59294;SDS011;45067;44.654;20.200;2023-07-24T00:14:09;20.55;;;18.38;;
59294;SDS011;45067;44.654;20.200;2023-07-24T00:16:35;20.45;;;17.67;;
59294;SDS011;45067;44.654;20.200;2023-07-24T00:19:02;19.70;;;17.60;;
59294;SDS011;45067;44.654;20.200;2023-07-24T00:21:28;21.77;;;19.42;;
59294;SDS011;45067;44.654;20.200;2023-07-24T00:23:54;21.35;;;19.02;;
59294;SDS011;45067;44.654;20.200;2023-07-24T00:26:20;20.95;;;18.45;;
59294;SDS011;45067;44.654;20.200;2023-07-24T00:28:46;22.15;;;18.55;;
59294;SDS011;45067;44.654;20.200;2023-07-24T00:31:12;20.38;;;17.40;;
59294;SDS011;45067;44.654;20.200;2023-07-24T00:33:38;22.25;;;17.95;;
59294;SDS011;45067;44.654;20.200;2023-07-24T00:36:04;19.83;;;17.30;;
59294;SDS011;45067;44.654;20.200;2023-07-24T00:38:30;20.50;;;18.13;;
59294;SDS011;45067;44.654;20.200;2023-07-24T00:40:56;22.50;;;17.95;;
59294;SDS011;45067;44.654;20.200;2023-07-24T00:43:22;20.95;;;18.63;;
59294;SDS011;45067;44.654;20.200;2023-07-24T00:45:48;20.40;;;17.85;;
59294;SDS011;45067;44.654;20.200;2023-07-24T00:48:15;21.75;;;18.67;;
59294;SDS011;45067;44.654;20.200;2023-07-24T00:50:43;21.25;;;18.92;;
59294;SDS011;45067;44.654;20.200;2023-07-24T00:53:13;21.48;;;19.17;;
59294;SDS011;45067;44.654;20.200;2023-07-24T00:55:39;21.45;;;19.00;;
59294;SDS011;45067;44.654;20.200;2023-07-24T00:58:06;21.67;;;19.20;;
59294;SDS011;45067;44.654;20.200;2023-07-24T01:00:32;20.83;;;18.63;;
59294;SDS011;45067;44.654;20.200;2023-07-24T01:02:59;22.42;;;18.92;;
59294;SDS011;45067;44.654;20.200;2023-07-24T01:05:25;22.20;;;19.45;;
59294;SDS011;45067;44.654;20.200;2023-07-24T01:07:52;21.02;;;18.77;;
59294;SDS011;45067;44.654;20.200;2023-07-24T01:10:18;23.77;;;19.08;;
59294;SDS011;45067;44.654;20.200;2023-07-24T01:15:16;23.02;;;18.75;;
59294;SDS011;45067;44.654;20.200;2023-07-24T01:17:46;24.98;;;19.02;;
59294;SDS011;45067;44.654;20.200;2023-07-24T01:20:13;23.88;;;20.20;;
59294;SDS011;45067;44.654;20.200;2023-07-24T01:22:48;23.67;;;20.13;;
59294;SDS011;45067;44.654;20.200;2023-07-24T01:25:27;24.27;;;21.40;;
59294;SDS011;45067;44.654;20.200;2023-07-24T01:27:57;24.13;;;19.77;;
59294;SDS011;45067;44.654;20.200;2023-07-24T01:30:23;21.60;;;19.05;;
59294;SDS011;45067;44.654;20.200;2023-07-24T01:32:49;24.33;;;20.15;;
59294;SDS011;45067;44.654;20.200;2023-07-24T01:35:15;23.35;;;19.42;;
59294;SDS011;45067;44.654;20.200;2023-07-24T01:37:41;22.42;;;19.60;;
59294;SDS011;45067;44.654;20.200;2023-07-24T01:40:08;21.55;;;19.25;;
59294;SDS011;45067;44.654;20.200;2023-07-24T01:42:34;25.67;;;19.85;;
59294;SDS011;45067;44.654;20.200;2023-07-24T01:45:01;23.33;;;20.45;;
59294;SDS011;45067;44.654;20.200;2023-07-24T01:47:28;28.30;;;20.90;;
59294;SDS011;45067;44.654;20.200;2023-07-24T01:49:55;24.08;;;20.88;;
59294;SDS011;45067;44.654;20.200;2023-07-24T01:52:21;23.23;;;20.83;;
59294;SDS011;45067;44.654;20.200;2023-07-24T01:54:47;25.05;;;19.83;;
59294;SDS011;45067;44.654;20.200;2023-07-24T01:57:13;22.45;;;19.35;;
59294;SDS011;45067;44.654;20.200;2023-07-24T01:59:39;27.75;;;20.65;;
59294;SDS011;45067;44.654;20.200;2023-07-24T02:02:05;24.15;;;20.80;;
59294;SDS011;45067;44.654;20.200;2023-07-24T02:04:31;27.70;;;19.95;;
59294;SDS011;45067;44.654;20.200;2023-07-24T02:06:57;23.80;;;19.08;;
59294;SDS011;45067;44.654;20.200;2023-07-24T02:09:23;22.63;;;19.63;;
59294;SDS011;45067;44.654;20.200;2023-07-24T02:11:49;23.52;;;19.45;;
59294;SDS011;45067;44.654;20.200;2023-07-24T02:14:17;24.13;;;20.05;;
59294;SDS011;45067;44.654;20.200;2023-07-24T02:16:43;25.38;;;20.05;;
59294;SDS011;45067;44.654;20.200;2023-07-24T02:19:09;21.92;;;19.30;;
59294;SDS011;45067;44.654;20.200;2023-07-24T02:21:35;24.52;;;20.73;;
59294;SDS011;45067;44.654;20.200;2023-07-24T02:24:02;24.05;;;20.50;;
59294;SDS011;45067;44.654;20.200;2023-07-24T02:26:28;23.63;;;20.33;;
59294;SDS011;45067;44.654;20.200;2023-07-24T02:28:54;25.75;;;21.55;;
59294;SDS011;45067;44.654;20.200;2023-07-24T02:31:20;22.65;;;19.88;;
59294;SDS011;45067;44.654;20.200;2023-07-24T02:33:46;23.45;;;19.55;;
59294;SDS011;45067;44.654;20.200;2023-07-24T02:36:12;23.45;;;20.30;;
59294;SDS011;45067;44.654;20.200;2023-07-24T02:38:38;26.33;;;19.58;;
59294;SDS011;45067;44.654;20.200;2023-07-24T02:41:04;23.58;;;19.25;;
59294;SDS011;45067;44.654;20.200;2023-07-24T02:43:30;24.05;;;19.92;;
59294;SDS011;45067;44.654;20.200;2023-07-24T02:46:00;24.88;;;20.10;;
59294;SDS011;45067;44.654;20.200;2023-07-24T02:48:26;21.35;;;18.60;;
59294;SDS011;45067;44.654;20.200;2023-07-24T02:50:53;23.25;;;19.35;;
59294;SDS011;45067;44.654;20.200;2023-07-24T02:53:19;23.88;;;18.42;;
59294;SDS011;45067;44.654;20.200;2023-07-24T02:55:45;22.98;;;18.98;;
59294;SDS011;45067;44.654;20.200;2023-07-24T02:58:12;23.15;;;17.30;;
59294;SDS011;45067;44.654;20.200;2023-07-24T03:00:38;20.40;;;17.92;;
59294;SDS011;45067;44.654;20.200;2023-07-24T03:03:04;22.80;;;18.83;;
59294;SDS011;45067;44.654;20.200;2023-07-24T03:05:30;26.42;;;19.02;;
59294;SDS011;45067;44.654;20.200;2023-07-24T03:07:56;21.88;;;18.55;;
59294;SDS011;45067;44.654;20.200;2023-07-24T03:10:23;22.88;;;17.83;;
59294;SDS011;45067;44.654;20.200;2023-07-24T03:12:49;24.23;;;19.50;;
59294;SDS011;45067;44.654;20.200;2023-07-24T03:15:15;23.60;;;19.23;;
59294;SDS011;45067;44.654;20.200;2023-07-24T03:17:41;22.38;;;19.35;;
59294;SDS011;45067;44.654;20.200;2023-07-24T03:20:13;22.00;;;18.55;;
59294;SDS011;45067;44.654;20.200;2023-07-24T03:22:40;22.23;;;19.30;;
59294;SDS011;45067;44.654;20.200;2023-07-24T03:25:06;23.17;;;18.40;;
59294;SDS011;45067;44.654;20.200;2023-07-24T03:27:32;26.90;;;18.52;;
59294;SDS011;45067;44.654;20.200;2023-07-24T03:29:58;23.70;;;19.65;;
59294;SDS011;45067;44.654;20.200;2023-07-24T03:32:25;25.65;;;19.00;;
59294;SDS011;45067;44.654;20.200;2023-07-24T03:34:51;23.55;;;18.85;;
59294;SDS011;45067;44.654;20.200;2023-07-24T03:37:17;23.65;;;18.88;;
59294;SDS011;45067;44.654;20.200;2023-07-24T03:39:43;24.05;;;20.42;;
59294;SDS011;45067;44.654;20.200;2023-07-24T03:42:09;25.52;;;19.30;;
59294;SDS011;45067;44.654;20.200;2023-07-24T03:44:38;25.40;;;21.70;;
59294;SDS011;45067;44.654;20.200;2023-07-24T03:47:04;25.98;;;20.25;;
59294;SDS011;45067;44.654;20.200;2023-07-24T03:49:30;27.38;;;20.10;;
59294;SDS011;45067;44.654;20.200;2023-07-24T03:51:56;27.15;;;20.67;;
59294;SDS011;45067;44.654;20.200;2023-07-24T03:54:22;27.42;;;21.85;;
59294;SDS011;45067;44.654;20.200;2023-07-24T03:56:48;26.33;;;21.42;;
59294;SDS011;45067;44.654;20.200;2023-07-24T03:59:14;26.38;;;20.52;;
59294;SDS011;45067;44.654;20.200;2023-07-24T04:01:40;27.20;;;21.55;;
59294;SDS011;45067;44.654;20.200;2023-07-24T04:04:07;27.92;;;22.17;;
59294;SDS011;45067;44.654;20.200;2023-07-24T04:06:33;29.02;;;23.02;;
59294;SDS011;45067;44.654;20.200;2023-07-24T04:08:59;30.42;;;22.38;;
59294;SDS011;45067;44.654;20.200;2023-07-24T04:11:25;31.67;;;23.67;;
59294;SDS011;45067;44.654;20.200;2023-07-24T04:13:51;34.60;;;25.73;;
59294;SDS011;45067;44.654;20.200;2023-07-24T04:16:17;35.65;;;24.90;;
59294;SDS011;45067;44.654;20.200;2023-07-24T04:18:43;35.83;;;25.58;;
59294;SDS011;45067;44.654;20.200;2023-07-24T04:21:09;32.95;;;26.35;;
59294;SDS011;45067;44.654;20.200;2023-07-24T04:23:35;36.22;;;26.80;;
59294;SDS011;45067;44.654;20.200;2023-07-24T04:26:01;42.20;;;27.50;;
59294;SDS011;45067;44.654;20.200;2023-07-24T04:28:27;36.20;;;27.40;;
59294;SDS011;45067;44.654;20.200;2023-07-24T04:30:53;33.70;;;27.05;;
59294;SDS011;45067;44.654;20.200;2023-07-24T04:33:19;39.60;;;28.58;;
59294;SDS011;45067;44.654;20.200;2023-07-24T04:35:49;35.78;;;27.42;;
59294;SDS011;45067;44.654;20.200;2023-07-24T04:38:15;41.83;;;30.55;;
59294;SDS011;45067;44.654;20.200;2023-07-24T04:40:43;41.13;;;30.70;;
59294;SDS011;45067;44.654;20.200;2023-07-24T04:43:10;38.10;;;30.70;;
59294;SDS011;45067;44.654;20.200;2023-07-24T04:45:36;35.90;;;28.98;;
59294;SDS011;45067;44.654;20.200;2023-07-24T04:48:02;40.95;;;28.05;;
59294;SDS011;45067;44.654;20.200;2023-07-24T04:50:28;35.85;;;27.45;;
59294;SDS011;45067;44.654;20.200;2023-07-24T04:52:54;35.92;;;28.35;;
59294;SDS011;45067;44.654;20.200;2023-07-24T04:55:21;41.88;;;27.52;;
59294;SDS011;45067;44.654;20.200;2023-07-24T04:57:47;34.58;;;27.48;;
59294;SDS011;45067;44.654;20.200;2023-07-24T05:00:14;35.95;;;27.70;;
59294;SDS011;45067;44.654;20.200;2023-07-24T05:02:40;34.70;;;26.10;;
59294;SDS011;45067;44.654;20.200;2023-07-24T05:05:06;36.10;;;27.10;;
59294;SDS011;45067;44.654;20.200;2023-07-24T05:07:32;33.80;;;26.15;;
59294;SDS011;45067;44.654;20.200;2023-07-24T05:09:58;35.28;;;24.90;;
59294;SDS011;45067;44.654;20.200;2023-07-24T05:12:24;30.55;;;24.20;;
59294;SDS011;45067;44.654;20.200;2023-07-24T05:14:50;32.33;;;24.90;;
59294;SDS011;45067;44.654;20.200;2023-07-24T05:17:17;30.98;;;25.00;;
59294;SDS011;45067;44.654;20.200;2023-07-24T05:19:43;29.42;;;22.27;;
59294;SDS011;45067;44.654;20.200;2023-07-24T05:22:09;28.13;;;23.20;;
59294;SDS011;45067;44.654;20.200;2023-07-24T05:24:38;28.45;;;22.00;;
59294;SDS011;45067;44.654;20.200;2023-07-24T05:27:05;33.88;;;22.80;;
59294;SDS011;45067;44.654;20.200;2023-07-24T05:29:31;27.30;;;22.13;;
59294;SDS011;45067;44.654;20.200;2023-07-24T05:31:57;25.63;;;20.40;;
59294;SDS011;45067;44.654;20.200;2023-07-24T05:34:24;28.85;;;20.80;;
59294;SDS011;45067;44.654;20.200;2023-07-24T05:36:50;22.83;;;19.08;;
59294;SDS011;45067;44.654;20.200;2023-07-24T05:39:16;25.20;;;21.05;;
59294;SDS011;45067;44.654;20.200;2023-07-24T05:41:42;24.98;;;18.48;;
59294;SDS011;45067;44.654;20.200;2023-07-24T05:44:08;26.40;;;19.52;;
59294;SDS011;45067;44.654;20.200;2023-07-24T05:46:34;24.35;;;18.92;;
59294;SDS011;45067;44.654;20.200;2023-07-24T05:49:01;30.25;;;20.15;;
59294;SDS011;45067;44.654;20.200;2023-07-24T05:51:27;22.88;;;19.05;;
59294;SDS011;45067;44.654;20.200;2023-07-24T05:53:53;22.45;;;18.20;;
59294;SDS011;45067;44.654;20.200;2023-07-24T05:56:19;24.23;;;18.88;;
59294;SDS011;45067;44.654;20.200;2023-07-24T05:58:45;29.98;;;19.17;;
59294;SDS011;45067;44.654;20.200;2023-07-24T06:01:11;24.42;;;18.58;;
59294;SDS011;45067;44.654;20.200;2023-07-24T06:03:38;23.60;;;18.73;;
59294;SDS011;45067;44.654;20.200;2023-07-24T06:06:04;24.35;;;18.27;;
59294;SDS011;45067;44.654;20.200;2023-07-24T06:08:30;28.30;;;18.00;;
59294;SDS011;45067;44.654;20.200;2023-07-24T06:10:56;27.80;;;18.23;;
59294;SDS011;45067;44.654;20.200;2023-07-24T06:13:22;21.10;;;17.08;;
59294;SDS011;45067;44.654;20.200;2023-07-24T06:15:48;25.30;;;18.17;;
59294;SDS011;45067;44.654;20.200;2023-07-24T06:18:14;20.08;;;16.38;;
59294;SDS011;45067;44.654;20.200;2023-07-24T06:20:41;24.33;;;17.65;;
59294;SDS011;45067;44.654;20.200;2023-07-24T06:23:07;25.02;;;17.42;;
59294;SDS011;45067;44.654;20.200;2023-07-24T06:25:33;23.15;;;17.08;;
59294;SDS011;45067;44.654;20.200;2023-07-24T06:27:59;26.45;;;17.00;;
59294;SDS011;45067;44.654;20.200;2023-07-24T06:30:25;22.23;;;15.63;;
59294;SDS011;45067;44.654;20.200;2023-07-24T06:32:51;19.88;;;15.00;;
59294;SDS011;45067;44.654;20.200;2023-07-24T06:35:17;23.20;;;16.60;;
59294;SDS011;45067;44.654;20.200;2023-07-24T06:37:44;23.15;;;15.95;;
59294;SDS011;45067;44.654;20.200;2023-07-24T06:40:10;21.27;;;15.98;;
59294;SDS011;45067;44.654;20.200;2023-07-24T06:42:36;23.20;;;15.55;;
59294;SDS011;45067;44.654;20.200;2023-07-24T06:45:03;21.02;;;15.82;;
59294;SDS011;45067;44.654;20.200;2023-07-24T06:47:29;21.08;;;15.13;;
59294;SDS011;45067;44.654;20.200;2023-07-24T06:49:55;23.75;;;15.35;;
59294;SDS011;45067;44.654;20.200;2023-07-24T06:52:22;22.30;;;15.13;;
59294;SDS011;45067;44.654;20.200;2023-07-24T06:54:48;19.77;;;15.50;;
59294;SDS011;45067;44.654;20.200;2023-07-24T06:57:14;23.20;;;16.20;;
59294;SDS011;45067;44.654;20.200;2023-07-24T06:59:40;20.42;;;14.88;;
59294;SDS011;45067;44.654;20.200;2023-07-24T07:02:06;20.60;;;14.98;;
59294;SDS011;45067;44.654;20.200;2023-07-24T07:04:32;23.50;;;14.13;;
59294;SDS011;45067;44.654;20.200;2023-07-24T07:06:59;23.13;;;14.15;;
59294;SDS011;45067;44.654;20.200;2023-07-24T07:09:25;22.00;;;14.82;;
59294;SDS011;45067;44.654;20.200;2023-07-24T07:11:51;20.85;;;14.90;;
59294;SDS011;45067;44.654;20.200;2023-07-24T07:14:17;21.42;;;15.43;;
59294;SDS011;45067;44.654;20.200;2023-07-24T07:16:43;21.13;;;14.80;;
59294;SDS011;45067;44.654;20.200;2023-07-24T07:19:09;21.27;;;14.07;;
59294;SDS011;45067;44.654;20.200;2023-07-24T07:21:35;23.30;;;14.55;;
59294;SDS011;45067;44.654;20.200;2023-07-24T07:24:01;21.25;;;14.55;;
59294;SDS011;45067;44.654;20.200;2023-07-24T07:26:27;18.60;;;13.50;;
59294;SDS011;45067;44.654;20.200;2023-07-24T07:28:54;25.95;;;14.07;;
59294;SDS011;45067;44.654;20.200;2023-07-24T07:31:21;21.13;;;13.40;;
59294;SDS011;45067;44.654;20.200;2023-07-24T07:33:47;23.35;;;13.68;;
59294;SDS011;45067;44.654;20.200;2023-07-24T07:36:13;17.92;;;12.27;;
59294;SDS011;45067;44.654;20.200;2023-07-24T07:38:40;17.83;;;12.25;;
59294;SDS011;45067;44.654;20.200;2023-07-24T07:41:06;21.48;;;12.35;;
59294;SDS011;45067;44.654;20.200;2023-07-24T07:43:32;19.23;;;12.02;;
59294;SDS011;45067;44.654;20.200;2023-07-24T07:45:59;18.48;;;12.25;;
59294;SDS011;45067;44.654;20.200;2023-07-24T07:48:26;19.73;;;12.52;;
59294;SDS011;45067;44.654;20.200;2023-07-24T07:50:52;17.80;;;11.95;;
59294;SDS011;45067;44.654;20.200;2023-07-24T07:53:18;20.15;;;12.10;;
59294;SDS011;45067;44.654;20.200;2023-07-24T07:55:44;18.10;;;11.55;;
59294;SDS011;45067;44.654;20.200;2023-07-24T07:58:10;19.92;;;11.55;;
59294;SDS011;45067;44.654;20.200;2023-07-24T08:00:36;20.42;;;11.98;;
59294;SDS011;45067;44.654;20.200;2023-07-24T08:03:04;18.13;;;11.23;;
59294;SDS011;45067;44.654;20.200;2023-07-24T08:05:31;18.05;;;11.55;;
59294;SDS011;45067;44.654;20.200;2023-07-24T08:08:00;19.45;;;12.45;;
59294;SDS011;45067;44.654;20.200;2023-07-24T08:10:26;17.45;;;11.95;;
59294;SDS011;45067;44.654;20.200;2023-07-24T08:12:52;17.38;;;11.48;;
59294;SDS011;45067;44.654;20.200;2023-07-24T08:15:18;17.95;;;12.27;;
59294;SDS011;45067;44.654;20.200;2023-07-24T08:17:44;17.80;;;12.13;;
59294;SDS011;45067;44.654;20.200;2023-07-24T08:20:10;18.38;;;12.52;;
59294;SDS011;45067;44.654;20.200;2023-07-24T08:22:36;20.25;;;12.27;;
59294;SDS011;45067;44.654;20.200;2023-07-24T08:25:02;19.88;;;12.60;;
59294;SDS011;45067;44.654;20.200;2023-07-24T08:27:28;22.30;;;13.15;;
59294;SDS011;45067;44.654;20.200;2023-07-24T08:29:55;19.27;;;11.88;;
59294;SDS011;45067;44.654;20.200;2023-07-24T08:32:22;18.73;;;12.30;;
59294;SDS011;45067;44.654;20.200;2023-07-24T08:34:48;20.45;;;12.55;;
59294;SDS011;45067;44.654;20.200;2023-07-24T08:37:14;18.13;;;12.18;;
59294;SDS011;45067;44.654;20.200;2023-07-24T08:39:40;18.60;;;12.20;;
59294;SDS011;45067;44.654;20.200;2023-07-24T08:42:13;18.55;;;12.18;;
59294;SDS011;45067;44.654;20.200;2023-07-24T08:44:39;16.52;;;11.98;;
59294;SDS011;45067;44.654;20.200;2023-07-24T08:47:06;18.77;;;12.43;;
59294;SDS011;45067;44.654;20.200;2023-07-24T08:49:35;19.08;;;12.95;;
59294;SDS011;45067;44.654;20.200;2023-07-24T08:52:02;18.90;;;11.95;;
59294;SDS011;45067;44.654;20.200;2023-07-24T08:54:29;22.30;;;12.82;;
59294;SDS011;45067;44.654;20.200;2023-07-24T08:56:56;19.33;;;12.85;;
59294;SDS011;45067;44.654;20.200;2023-07-24T08:59:22;19.50;;;13.25;;
59294;SDS011;45067;44.654;20.200;2023-07-24T09:01:48;19.48;;;12.90;;
59294;SDS011;45067;44.654;20.200;2023-07-24T09:04:14;20.58;;;13.65;;
59294;SDS011;45067;44.654;20.200;2023-07-24T09:06:40;19.15;;;12.23;;
59294;SDS011;45067;44.654;20.200;2023-07-24T09:09:13;19.02;;;13.43;;
59294;SDS011;45067;44.654;20.200;2023-07-24T09:11:49;18.75;;;13.05;;
59294;SDS011;45067;44.654;20.200;2023-07-24T09:14:22;18.73;;;13.45;;
59294;SDS011;45067;44.654;20.200;2023-07-24T09:16:48;19.05;;;13.55;;
59294;SDS011;45067;44.654;20.200;2023-07-24T09:19:18;19.38;;;13.43;;
59294;SDS011;45067;44.654;20.200;2023-07-24T09:21:44;21.05;;;13.90;;
59294;SDS011;45067;44.654;20.200;2023-07-24T09:24:14;23.80;;;13.30;;
59294;SDS011;45067;44.654;20.200;2023-07-24T09:29:06;20.48;;;13.13;;
59294;SDS011;45067;44.654;20.200;2023-07-24T09:31:35;18.00;;;13.13;;
59294;SDS011;45067;44.654;20.200;2023-07-24T09:34:01;23.75;;;13.63;;
59294;SDS011;45067;44.654;20.200;2023-07-24T09:36:36;19.55;;;13.90;;
59294;SDS011;45067;44.654;20.200;2023-07-24T09:39:02;28.58;;;13.63;;
59294;SDS011;45067;44.654;20.200;2023-07-24T09:41:31;21.85;;;14.20;;
59294;SDS011;45067;44.654;20.200;2023-07-24T09:43:58;19.73;;;13.73;;
59294;SDS011;45067;44.654;20.200;2023-07-24T09:46:24;20.95;;;13.93;;
59294;SDS011;45067;44.654;20.200;2023-07-24T09:48:50;20.00;;;13.23;;
59294;SDS011;45067;44.654;20.200;2023-07-24T09:51:16;20.42;;;13.88;;
59294;SDS011;45067;44.654;20.200;2023-07-24T09:53:47;18.83;;;12.85;;
59294;SDS011;45067;44.654;20.200;2023-07-24T09:56:17;21.42;;;13.40;;
59294;SDS011;45067;44.654;20.200;2023-07-24T09:58:43;20.23;;;13.52;;
59294;SDS011;45067;44.654;20.200;2023-07-24T10:01:10;19.90;;;13.32;;
59294;SDS011;45067;44.654;20.200;2023-07-24T10:03:40;21.25;;;13.85;;
59294;SDS011;45067;44.654;20.200;2023-07-24T10:06:08;19.83;;;12.88;;
59294;SDS011;45067;44.654;20.200;2023-07-24T10:08:40;21.77;;;13.38;;
59294;SDS011;45067;44.654;20.200;2023-07-24T10:11:08;19.33;;;13.43;;
59294;SDS011;45067;44.654;20.200;2023-07-24T10:13:35;21.73;;;13.48;;
59294;SDS011;45067;44.654;20.200;2023-07-24T10:16:02;22.27;;;13.68;;
59294;SDS011;45067;44.654;20.200;2023-07-24T10:18:32;18.95;;;13.23;;
59294;SDS011;45067;44.654;20.200;2023-07-24T10:21:05;18.75;;;13.07;;
59294;SDS011;45067;44.654;20.200;2023-07-24T10:23:33;24.83;;;14.27;;
59294;SDS011;45067;44.654;20.200;2023-07-24T10:26:03;18.65;;;13.18;;
59294;SDS011;45067;44.654;20.200;2023-07-24T10:30:55;20.30;;;13.90;;
59294;SDS011;45067;44.654;20.200;2023-07-24T10:33:22;19.77;;;12.25;;
59294;SDS011;45067;44.654;20.200;2023-07-24T10:35:54;29.20;;;13.68;;
59294;SDS011;45067;44.654;20.200;2023-07-24T10:38:33;18.67;;;13.85;;
59294;SDS011;45067;44.654;20.200;2023-07-24T10:41:03;18.73;;;12.93;;
59294;SDS011;45067;44.654;20.200;2023-07-24T10:43:39;19.00;;;13.77;;
59294;SDS011;45067;44.654;20.200;2023-07-24T10:46:05;21.25;;;13.52;;
59294;SDS011;45067;44.654;20.200;2023-07-24T10:48:31;19.23;;;13.15;;
59294;SDS011;45067;44.654;20.200;2023-07-24T10:50:57;23.25;;;13.68;;
59294;SDS011;45067;44.654;20.200;2023-07-24T10:53:23;21.55;;;13.80;;
59294;SDS011;45067;44.654;20.200;2023-07-24T10:55:51;18.90;;;12.27;;
59294;SDS011;45067;44.654;20.200;2023-07-24T10:58:17;18.48;;;12.95;;
59294;SDS011;45067;44.654;20.200;2023-07-24T11:00:44;29.38;;;14.23;;
59294;SDS011;45067;44.654;20.200;2023-07-24T11:03:10;19.38;;;12.57;;
59294;SDS011;45067;44.654;20.200;2023-07-24T11:05:40;20.20;;;13.00;;
59294;SDS011;45067;44.654;20.200;2023-07-24T11:10:39;21.45;;;13.48;;
59294;SDS011;45067;44.654;20.200;2023-07-24T11:13:10;27.10;;;13.32;;
59294;SDS011;45067;44.654;20.200;2023-07-24T11:15:36;17.85;;;13.20;;
59294;SDS011;45067;44.654;20.200;2023-07-24T11:18:02;19.30;;;12.38;;
59294;SDS011;45067;44.654;20.200;2023-07-24T11:20:28;18.35;;;13.15;;
59294;SDS011;45067;44.654;20.200;2023-07-24T11:22:57;18.13;;;13.05;;
59294;SDS011;45067;44.654;20.200;2023-07-24T11:25:23;23.15;;;14.05;;
59294;SDS011;45067;44.654;20.200;2023-07-24T11:27:49;22.38;;;12.90;;
59294;SDS011;45067;44.654;20.200;2023-07-24T11:30:19;17.25;;;12.95;;
59294;SDS011;45067;44.654;20.200;2023-07-24T11:32:46;19.02;;;13.05;;
59294;SDS011;45067;44.654;20.200;2023-07-24T11:35:12;20.13;;;13.20;;
59294;SDS011;45067;44.654;20.200;2023-07-24T11:37:39;18.05;;;14.13;;
59294;SDS011;45067;44.654;20.200;2023-07-24T11:40:05;16.70;;;12.55;;
59294;SDS011;45067;44.654;20.200;2023-07-24T11:42:40;20.98;;;14.30;;
59294;SDS011;45067;44.654;20.200;2023-07-24T11:45:08;19.85;;;13.65;;
59294;SDS011;45067;44.654;20.200;2023-07-24T11:47:47;17.85;;;12.40;;
59294;SDS011;45067;44.654;20.200;2023-07-24T11:50:14;20.75;;;14.48;;
59294;SDS011;45067;44.654;20.200;2023-07-24T11:52:41;23.80;;;13.27;;
59294;SDS011;45067;44.654;20.200;2023-07-24T11:55:10;19.77;;;13.15;;
59294;SDS011;45067;44.654;20.200;2023-07-24T11:57:37;19.55;;;13.93;;
59294;SDS011;45067;44.654;20.200;2023-07-24T12:00:04;33.53;;;14.38;;
59294;SDS011;45067;44.654;20.200;2023-07-24T12:02:32;18.13;;;13.65;;
59294;SDS011;45067;44.654;20.200;2023-07-24T12:04:59;18.88;;;13.02;;
59294;SDS011;45067;44.654;20.200;2023-07-24T12:07:29;18.67;;;12.90;;
59294;SDS011;45067;44.654;20.200;2023-07-24T12:09:56;18.85;;;13.52;;
59294;SDS011;45067;44.654;20.200;2023-07-24T12:12:22;17.15;;;12.27;;
59294;SDS011;45067;44.654;20.200;2023-07-24T12:14:48;32.00;;;14.85;;
59294;SDS011;45067;44.654;20.200;2023-07-24T12:17:17;17.70;;;13.35;;
59294;SDS011;45067;44.654;20.200;2023-07-24T12:19:44;18.17;;;13.40;;
59294;SDS011;45067;44.654;20.200;2023-07-24T12:22:10;18.63;;;12.73;;
59294;SDS011;45067;44.654;20.200;2023-07-24T12:24:36;19.40;;;13.27;;
59294;SDS011;45067;44.654;20.200;2023-07-24T12:27:02;18.23;;;12.55;;
59294;SDS011;45067;44.654;20.200;2023-07-24T12:29:28;18.55;;;12.73;;
59294;SDS011;45067;44.654;20.200;2023-07-24T12:31:54;18.90;;;13.15;;
59294;SDS011;45067;44.654;20.200;2023-07-24T12:34:20;17.92;;;12.80;;
59294;SDS011;45067;44.654;20.200;2023-07-24T12:36:47;17.48;;;13.57;;
59294;SDS011;45067;44.654;20.200;2023-07-24T12:39:13;16.80;;;12.88;;
59294;SDS011;45067;44.654;20.200;2023-07-24T12:41:39;17.65;;;12.85;;
59294;SDS011;45067;44.654;20.200;2023-07-24T12:44:05;18.52;;;13.50;;
59294;SDS011;45067;44.654;20.200;2023-07-24T12:46:31;18.17;;;13.50;;
59294;SDS011;45067;44.654;20.200;2023-07-24T12:48:57;18.52;;;13.00;;
59294;SDS011;45067;44.654;20.200;2023-07-24T12:51:23;19.08;;;12.45;;
59294;SDS011;45067;44.654;20.200;2023-07-24T12:53:49;17.30;;;12.63;;
59294;SDS011;45067;44.654;20.200;2023-07-24T12:56:16;19.60;;;13.30;;
59294;SDS011;45067;44.654;20.200;2023-07-24T12:58:42;19.75;;;13.15;;
59294;SDS011;45067;44.654;20.200;2023-07-24T13:01:09;18.92;;;13.18;;
59294;SDS011;45067;44.654;20.200;2023-07-24T13:03:35;20.45;;;14.02;;
59294;SDS011;45067;44.654;20.200;2023-07-24T13:06:02;19.65;;;13.23;;
59294;SDS011;45067;44.654;20.200;2023-07-24T13:08:28;19.00;;;13.57;;
59294;SDS011;45067;44.654;20.200;2023-07-24T13:10:54;15.98;;;12.98;;
59294;SDS011;45067;44.654;20.200;2023-07-24T13:13:20;17.90;;;12.93;;
59294;SDS011;45067;44.654;20.200;2023-07-24T13:15:46;18.13;;;13.68;;
59294;SDS011;45067;44.654;20.200;2023-07-24T13:18:12;19.50;;;12.95;;
59294;SDS011;45067;44.654;20.200;2023-07-24T13:20:39;19.77;;;13.57;;
59294;SDS011;45067;44.654;20.200;2023-07-24T13:23:06;18.48;;;12.88;;
59294;SDS011;45067;44.654;20.200;2023-07-24T13:25:32;16.95;;;12.68;;
59294;SDS011;45067;44.654;20.200;2023-07-24T13:27:58;19.40;;;12.73;;
59294;SDS011;45067;44.654;20.200;2023-07-24T13:30:24;16.98;;;11.95;;
59294;SDS011;45067;44.654;20.200;2023-07-24T13:32:50;17.42;;;12.05;;
59294;SDS011;45067;44.654;20.200;2023-07-24T13:35:16;15.85;;;11.73;;
59294;SDS011;45067;44.654;20.200;2023-07-24T13:37:42;17.48;;;12.82;;
59294;SDS011;45067;44.654;20.200;2023-07-24T13:40:08;18.52;;;12.48;;
59294;SDS011;45067;44.654;20.200;2023-07-24T13:42:35;17.15;;;11.63;;
59294;SDS011;45067;44.654;20.200;2023-07-24T13:45:01;16.77;;;12.57;;
59294;SDS011;45067;44.654;20.200;2023-07-24T13:47:27;18.33;;;11.88;;
59294;SDS011;45067;44.654;20.200;2023-07-24T13:49:53;18.50;;;13.20;;
59294;SDS011;45067;44.654;20.200;2023-07-24T13:52:19;19.30;;;12.70;;
59294;SDS011;45067;44.654;20.200;2023-07-24T13:54:45;17.38;;;12.50;;
59294;SDS011;45067;44.654;20.200;2023-07-24T13:57:12;17.58;;;12.38;;
59294;SDS011;45067;44.654;20.200;2023-07-24T13:59:39;16.17;;;11.88;;
59294;SDS011;45067;44.654;20.200;2023-07-24T14:02:05;17.70;;;12.05;;
59294;SDS011;45067;44.654;20.200;2023-07-24T14:04:32;15.20;;;11.75;;
59294;SDS011;45067;44.654;20.200;2023-07-24T14:06:58;17.02;;;12.82;;
59294;SDS011;45067;44.654;20.200;2023-07-24T14:09:24;16.95;;;12.20;;
59294;SDS011;45067;44.654;20.200;2023-07-24T14:11:50;16.25;;;12.27;;
59294;SDS011;45067;44.654;20.200;2023-07-24T14:14:17;16.60;;;12.50;;
59294;SDS011;45067;44.654;20.200;2023-07-24T14:16:44;24.00;;;14.77;;